Time;durP1;ratioP1;P1;durP2;ratioP2;P2;SDS_P1;SDS_P2;PMS_P1;PMS_P2;Temp;Humidity;BMP_temperature;BMP_pressure;BME280_temperature;BME280_humidity;BME280_pressure;Samples;Min_cycle;Max_cycle;Signal;HPM_P1;HPM_P2
2024/01/30 00:01:29;;;;;;;3.22;2.92;;;;;;;;;;5024949;28;20053;-70
2024/01/30 00:03:55;;;;;;;3.08;2.78;;;;;;;;;;5024738;28;20033;-70
2024/01/30 00:06:22;;;;;;;3.85;3.40;;;;;;;;;;5036223;28;20115;-71
2024/01/30 00:08:48;;;;;;;2.60;2.40;;;;;;;;;;5025980;28;20512;-70
2024/01/30 00:11:15;;;;;;;2.55;2.35;;;;;;;;;;5024762;28;20053;-70
2024/01/30 00:13:41;;;;;;;3.35;3.00;;;;;;;;;;5025550;28;20041;-70
2024/01/30 00:16:08;;;;;;;2.85;2.63;;;;;;;;;;5024865;28;20041;-69
2024/01/30 00:18:34;;;;;;;3.78;3.33;;;;;;;;;;5026468;28;20499;-70
2024/01/30 00:21:00;;;;;;;2.75;2.55;;;;;;;;;;5023699;28;20053;-70
2024/01/30 00:23:26;;;;;;;3.47;2.85;;;;;;;;;;5024288;28;20132;-70
2024/01/30 00:25:52;;;;;;;2.80;2.58;;;;;;;;;;5023959;28;20416;-70
2024/01/30 00:28:18;;;;;;;2.40;2.20;;;;;;;;;;5023516;28;20064;-70
2024/01/30 00:30:44;;;;;;;2.13;1.92;;;;;;;;;;5024588;28;20045;-71
2024/01/30 00:33:10;;;;;;;2.88;2.60;;;;;;;;;;5025117;28;20132;-72
2024/01/30 00:35:36;;;;;;;2.40;2.20;;;;;;;;;;5024437;28;20063;-70
2024/01/30 00:38:03;;;;;;;3.13;2.50;;;;;;;;;;5023881;28;20412;-70
2024/01/30 00:40:28;;;;;;;2.97;2.53;;;;;;;;;;5025144;28;20115;-70
2024/01/30 00:42:55;;;;;;;2.53;2.33;;;;;;;;;;5021298;28;20535;-71
2024/01/30 00:45:21;;;;;;;3.15;2.80;;;;;;;;;;5025650;28;20133;-70
2024/01/30 00:47:46;;;;;;;2.90;2.60;;;;;;;;;;5024455;28;20127;-70
2024/01/30 00:50:12;;;;;;;2.65;2.45;;;;;;;;;;5024199;28;20088;-70
2024/01/30 00:52:40;;;;;;;2.90;2.60;;;;;;;;;;5022852;28;20053;-72
2024/01/30 00:55:06;;;;;;;3.38;3.08;;;;;;;;;;5025119;28;20118;-70
2024/01/30 00:57:32;;;;;;;3.58;3.28;;;;;;;;;;5022784;28;20148;-70
2024/01/30 00:59:58;;;;;;;3.00;2.60;;;;;;;;;;5021294;28;20579;-70
2024/01/30 01:02:24;;;;;;;3.42;3.13;;;;;;;;;;5024028;28;20045;-70
2024/01/30 01:04:50;;;;;;;3.08;2.78;;;;;;;;;;5023299;28;20038;-70
2024/01/30 01:07:16;;;;;;;3.05;2.78;;;;;;;;;;5023436;28;20416;-70
2024/01/30 01:09:42;;;;;;;3.95;3.55;;;;;;;;;;5023211;28;20080;-70
2024/01/30 01:12:08;;;;;;;3.53;3.22;;;;;;;;;;5024053;28;20056;-71
2024/01/30 01:14:34;;;;;;;4.07;3.25;;;;;;;;;;5023620;28;20519;-70
2024/01/30 01:17:00;;;;;;;4.03;3.47;;;;;;;;;;5021409;28;20095;-69
2024/01/30 01:19:26;;;;;;;4.65;3.80;;;;;;;;;;5024769;28;20092;-70
2024/01/30 01:21:53;;;;;;;3.88;3.53;;;;;;;;;;5024678;28;20104;-70
2024/01/30 01:24:19;;;;;;;5.20;3.80;;;;;;;;;;5023601;28;20046;-70
2024/01/30 01:26:45;;;;;;;4.97;4.47;;;;;;;;;;5023385;28;20419;-70
2024/01/30 01:29:11;;;;;;;5.32;4.82;;;;;;;;;;5025299;28;21266;-70
2024/01/30 01:31:43;;;;;;;5.60;5.07;;;;;;;;;;5024203;28;20672;-69
2024/01/30 01:34:10;;;;;;;5.87;4.63;;;;;;;;;;5024094;28;20057;-70
2024/01/30 01:36:36;;;;;;;6.75;4.85;;;;;;;;;;5023724;28;20057;-69
2024/01/30 01:39:03;;;;;;;5.10;4.57;;;;;;;;;;5022500;28;20085;-70
2024/01/30 01:41:32;;;;;;;5.82;5.30;;;;;;;;;;5023837;28;20053;-70
2024/01/30 01:43:58;;;;;;;7.63;4.78;;;;;;;;;;5021568;28;20061;-69
2024/01/30 01:46:24;;;;;;;5.43;4.93;;;;;;;;;;5024393;28;20041;-70
2024/01/30 01:48:50;;;;;;;6.80;5.75;;;;;;;;;;5024283;28;20078;-70
2024/01/30 01:51:16;;;;;;;8.57;6.10;;;;;;;;;;5022255;28;20495;-69
2024/01/30 01:53:42;;;;;;;6.85;6.05;;;;;;;;;;5024580;28;20056;-70
2024/01/30 01:56:09;;;;;;;7.10;6.13;;;;;;;;;;5024440;28;20049;-70
2024/01/30 01:58:35;;;;;;;6.50;5.90;;;;;;;;;;5022433;28;20041;-70
2024/01/30 02:01:01;;;;;;;6.47;5.80;;;;;;;;;;5022499;28;20084;-70
2024/01/30 02:03:27;;;;;;;6.45;5.80;;;;;;;;;;5023135;28;20323;-70
2024/01/30 02:05:54;;;;;;;7.60;5.90;;;;;;;;;;5022651;28;20060;-69
2024/01/30 02:08:20;;;;;;;6.55;5.75;;;;;;;;;;5021604;28;20045;-70
2024/01/30 02:10:46;;;;;;;6.00;5.40;;;;;;;;;;5021492;28;20064;-70
2024/01/30 02:13:15;;;;;;;5.97;5.38;;;;;;;;;;5022312;28;20049;-70
2024/01/30 02:15:41;;;;;;;5.75;5.15;;;;;;;;;;5022807;28;20073;-70
2024/01/30 02:18:07;;;;;;;5.13;4.63;;;;;;;;;;5022942;28;20633;-70
2024/01/30 02:20:35;;;;;;;5.60;4.72;;;;;;;;;;5022131;28;20302;-69
2024/01/30 02:23:01;;;;;;;6.72;5.90;;;;;;;;;;5023500;28;20505;-70
2024/01/30 02:25:31;;;;;;;5.43;4.93;;;;;;;;;;5022386;28;20061;-70
2024/01/30 02:27:57;;;;;;;5.40;4.90;;;;;;;;;;5023427;28;20069;-70
2024/01/30 02:30:23;;;;;;;7.70;5.75;;;;;;;;;;5022637;28;20053;-71
2024/01/30 02:32:49;;;;;;;8.40;5.70;;;;;;;;;;5021654;28;20045;-70
2024/01/30 02:35:15;;;;;;;6.20;5.53;;;;;;;;;;5021418;28;20042;-70
2024/01/30 02:37:41;;;;;;;6.88;5.82;;;;;;;;;;5023699;28;20122;-71
2024/01/30 02:40:07;;;;;;;6.38;5.65;;;;;;;;;;5022735;28;20185;-70
2024/01/30 02:42:33;;;;;;;5.10;4.60;;;;;;;;;;5022193;28;20045;-70
2024/01/30 02:44:59;;;;;;;4.40;4.00;;;;;;;;;;5023311;28;20057;-70
2024/01/30 02:47:25;;;;;;;5.25;4.40;;;;;;;;;;5020715;28;20519;-69
2024/01/30 02:49:51;;;;;;;5.65;4.72;;;;;;;;;;5020846;28;20388;-70
2024/01/30 02:52:17;;;;;;;7.88;6.75;;;;;;;;;;5022155;28;20152;-71
2024/01/30 02:54:43;;;;;;;9.35;7.38;;;;;;;;;;5021292;28;20129;-71
2024/01/30 02:57:09;;;;;;;9.27;7.30;;;;;;;;;;5022457;28;20060;-70
2024/01/30 02:59:36;;;;;;;7.00;6.28;;;;;;;;;;5022284;28;20062;-70
2024/01/30 03:02:02;;;;;;;7.25;6.00;;;;;;;;;;5020639;28;20049;-70
2024/01/30 03:04:29;;;;;;;5.38;4.82;;;;;;;;;;5021914;28;20053;-70
2024/01/30 03:06:55;;;;;;;5.28;4.78;;;;;;;;;;5021797;28;20048;-70
2024/01/30 03:09:21;;;;;;;4.43;4.03;;;;;;;;;;5021342;28;20053;-70
2024/01/30 03:11:47;;;;;;;4.15;3.78;;;;;;;;;;5022493;28;20087;-70
2024/01/30 03:14:13;;;;;;;4.00;3.60;;;;;;;;;;5022385;28;20116;-71
2024/01/30 03:16:42;;;;;;;3.33;3.03;;;;;;;;;;5021297;28;20056;-71
2024/01/30 03:19:09;;;;;;;3.60;2.88;;;;;;;;;;5021653;28;20057;-70
2024/01/30 03:21:35;;;;;;;3.97;3.60;;;;;;;;;;5021130;28;20077;-70
2024/01/30 03:24:01;;;;;;;3.78;3.40;;;;;;;;;;5026478;28;20048;-69
2024/01/30 03:26:27;;;;;;;3.42;3.03;;;;;;;;;;5025498;28;20057;-70
2024/01/30 03:28:53;;;;;;;4.10;3.70;;;;;;;;;;5027047;28;20042;-70
2024/01/30 03:31:19;;;;;;;3.42;3.13;;;;;;;;;;5024956;28;20037;-70
2024/01/30 03:33:45;;;;;;;4.13;3.47;;;;;;;;;;5025573;28;20053;-70
2024/01/30 03:36:11;;;;;;;3.88;3.47;;;;;;;;;;5026153;28;20037;-70
2024/01/30 03:38:37;;;;;;;4.63;4.03;;;;;;;;;;5025618;28;20570;-70
2024/01/30 03:41:03;;;;;;;5.85;5.25;;;;;;;;;;5025044;28;20049;-70
2024/01/30 03:43:29;;;;;;;5.88;4.60;;;;;;;;;;5025919;28;20037;-70
2024/01/30 03:45:55;;;;;;;4.90;4.40;;;;;;;;;;5026661;28;20099;-69
2024/01/30 03:48:21;;;;;;;6.43;5.68;;;;;;;;;;5026777;28;20057;-70
2024/01/30 03:50:47;;;;;;;6.38;5.22;;;;;;;;;;5026113;28;20488;-70
2024/01/30 03:53:13;;;;;;;6.57;5.03;;;;;;;;;;5025880;28;20098;-70
2024/01/30 03:55:39;;;;;;;10.20;7.35;;;;;;;;;;5026820;28;20049;-70
2024/01/30 03:58:05;;;;;;;10.73;7.70;;;;;;;;;;5024361;28;20090;-70
2024/01/30 04:00:31;;;;;;;7.90;7.13;;;;;;;;;;5025127;28;20060;-70
2024/01/30 04:02:57;;;;;;;7.30;6.60;;;;;;;;;;5025164;28;20053;-70
2024/01/30 04:05:23;;;;;;;6.93;6.22;;;;;;;;;;5024223;28;20176;-70
2024/01/30 04:07:49;;;;;;;5.85;5.22;;;;;;;;;;5025940;28;20091;-69
2024/01/30 04:10:15;;;;;;;9.20;7.18;;;;;;;;;;5022619;28;20049;-72
2024/01/30 04:12:42;;;;;;;7.05;6.35;;;;;;;;;;5022577;28;20050;-69
2024/01/30 04:15:08;;;;;;;10.68;6.88;;;;;;;;;;5023530;28;20056;-70
2024/01/30 04:17:34;;;;;;;7.68;5.93;;;;;;;;;;5023855;28;20107;-70
2024/01/30 04:20:00;;;;;;;9.45;7.75;;;;;;;;;;5022983;28;20392;-71
2024/01/30 04:22:26;;;;;;;7.85;6.43;;;;;;;;;;5025145;28;20175;-70
2024/01/30 04:24:52;;;;;;;7.28;6.40;;;;;;;;;;5025664;28;20136;-70
2024/01/30 04:27:18;;;;;;;8.20;5.93;;;;;;;;;;5023803;28;20061;-70
2024/01/30 04:29:44;;;;;;;8.70;7.10;;;;;;;;;;5026132;28;20045;-70
2024/01/30 04:32:10;;;;;;;7.65;6.88;;;;;;;;;;5026496;28;20049;-70
2024/01/30 04:34:37;;;;;;;7.65;6.53;;;;;;;;;;5022843;28;20135;-70
2024/01/30 04:37:03;;;;;;;7.88;6.85;;;;;;;;;;5025877;28;20107;-70
2024/01/30 04:39:29;;;;;;;10.15;7.43;;;;;;;;;;5023777;28;20490;-70
2024/01/30 04:41:55;;;;;;;8.20;7.40;;;;;;;;;;5024271;28;20437;-70
2024/01/30 04:44:21;;;;;;;9.00;8.15;;;;;;;;;;5025568;28;20134;-70
2024/01/30 04:46:47;;;;;;;9.23;7.63;;;;;;;;;;5023544;28;20052;-70
2024/01/30 04:49:13;;;;;;;10.75;8.95;;;;;;;;;;5024366;28;20045;-71
2024/01/30 04:51:39;;;;;;;9.82;8.15;;;;;;;;;;5024834;28;20053;-70
2024/01/30 04:54:05;;;;;;;9.20;8.07;;;;;;;;;;5023282;28;20048;-70
2024/01/30 04:56:31;;;;;;;9.60;8.55;;;;;;;;;;5023681;28;20404;-70
2024/01/30 04:58:57;;;;;;;13.88;9.60;;;;;;;;;;5025147;28;20135;-70
2024/01/30 05:01:23;;;;;;;10.77;9.38;;;;;;;;;;5024843;28;20476;-70
2024/01/30 05:03:49;;;;;;;10.57;9.52;;;;;;;;;;5025287;28;20069;-70
2024/01/30 05:06:24;;;;;;;9.65;8.65;;;;;;;;;;5024073;28;20487;-70
2024/01/30 05:08:50;;;;;;;10.77;9.27;;;;;;;;;;5022941;28;20136;-70
2024/01/30 05:11:16;;;;;;;9.73;8.52;;;;;;;;;;5023855;28;20057;-70
2024/01/30 05:13:42;;;;;;;9.65;8.48;;;;;;;;;;5024050;28;20045;-70
2024/01/30 05:16:08;;;;;;;12.98;8.85;;;;;;;;;;5024457;28;20133;-70
2024/01/30 05:18:34;;;;;;;8.57;7.32;;;;;;;;;;5023773;28;20095;-70
2024/01/30 05:21:00;;;;;;;10.25;8.48;;;;;;;;;;5023456;28;20045;-70
2024/01/30 05:23:26;;;;;;;8.07;6.78;;;;;;;;;;5022747;28;20443;-69
2024/01/30 05:25:52;;;;;;;7.93;6.65;;;;;;;;;;5022252;28;20058;-70
2024/01/30 05:28:18;;;;;;;9.75;8.60;;;;;;;;;;5022484;28;20107;-70
2024/01/30 05:30:44;;;;;;;8.75;7.95;;;;;;;;;;5022369;28;20197;-70
2024/01/30 05:33:12;;;;;;;9.43;8.35;;;;;;;;;;5025506;28;20037;-70
2024/01/30 05:35:38;;;;;;;8.27;7.47;;;;;;;;;;5024917;28;20115;-71
2024/01/30 05:38:04;;;;;;;7.95;7.15;;;;;;;;;;5023368;28;20092;-70
2024/01/30 05:40:30;;;;;;;9.23;7.72;;;;;;;;;;5023269;28;20520;-70
2024/01/30 05:43:00;;;;;;;7.30;6.60;;;;;;;;;;5021728;28;20510;-69
2024/01/30 05:45:26;;;;;;;8.85;7.60;;;;;;;;;;5022919;28;20048;-70
2024/01/30 05:47:53;;;;;;;8.25;7.13;;;;;;;;;;5023563;28;20049;-70
2024/01/30 05:50:19;;;;;;;8.15;7.25;;;;;;;;;;5023480;28;20083;-70
2024/01/30 05:52:45;;;;;;;10.40;8.50;;;;;;;;;;5020980;28;20045;-70
2024/01/30 05:55:12;;;;;;;8.98;7.55;;;;;;;;;;5025422;28;20049;-71
2024/01/30 05:57:38;;;;;;;8.45;7.65;;;;;;;;;;5024695;28;20053;-70
2024/01/30 06:00:05;;;;;;;10.00;8.95;;;;;;;;;;5023194;28;20049;-70
2024/01/30 06:02:31;;;;;;;11.43;10.18;;;;;;;;;;5023900;28;20466;-70
2024/01/30 06:04:57;;;;;;;10.70;8.45;;;;;;;;;;5022807;28;20057;-70
2024/01/30 06:07:23;;;;;;;11.48;9.15;;;;;;;;;;5023561;28;20060;-69
2024/01/30 06:09:49;;;;;;;8.27;7.47;;;;;;;;;;5023766;28;20053;-70
2024/01/30 06:12:15;;;;;;;8.75;7.85;;;;;;;;;;5023889;28;20426;-70
2024/01/30 06:14:42;;;;;;;9.02;7.80;;;;;;;;;;5024506;28;20053;-70
2024/01/30 06:17:08;;;;;;;12.55;8.63;;;;;;;;;;5023080;28;20060;-69
2024/01/30 06:19:35;;;;;;;15.27;10.50;;;;;;;;;;5023249;28;20045;-70
2024/01/30 06:22:01;;;;;;;9.70;8.73;;;;;;;;;;5022115;28;20140;-69
2024/01/30 06:24:27;;;;;;;9.38;8.05;;;;;;;;;;5023608;28;20079;-70
2024/01/30 06:26:53;;;;;;;9.77;8.80;;;;;;;;;;5020269;28;20064;-70
2024/01/30 06:29:20;;;;;;;11.20;9.50;;;;;;;;;;5016402;28;20045;-70
2024/01/30 06:31:46;;;;;;;12.88;9.52;;;;;;;;;;5017072;28;20050;-70
2024/01/30 06:34:12;;;;;;;11.00;9.73;;;;;;;;;;5017036;28;20052;-72
2024/01/30 06:36:39;;;;;;;11.45;10.23;;;;;;;;;;5014238;28;20057;-70
2024/01/30 06:39:05;;;;;;;10.45;8.90;;;;;;;;;;5016724;28;20080;-70
2024/01/30 06:41:31;;;;;;;10.05;9.05;;;;;;;;;;5013794;28;20052;-70
2024/01/30 06:43:57;;;;;;;8.98;7.70;;;;;;;;;;5017769;28;20038;-70
2024/01/30 06:46:23;;;;;;;9.20;8.18;;;;;;;;;;5012943;28;20381;-70
2024/01/30 06:48:49;;;;;;;10.23;8.35;;;;;;;;;;5019200;28;20183;-70
2024/01/30 06:51:15;;;;;;;9.82;8.75;;;;;;;;;;5015926;28;20239;-71
2024/01/30 06:53:41;;;;;;;8.23;7.43;;;;;;;;;;5018665;28;20045;-70
2024/01/30 06:56:07;;;;;;;9.60;8.60;;;;;;;;;;5015497;28;20054;-70
2024/01/30 06:58:33;;;;;;;8.90;8.00;;;;;;;;;;5014911;28;20422;-70
2024/01/30 07:00:59;;;;;;;10.02;9.02;;;;;;;;;;5017001;28;20504;-69
2024/01/30 07:03:25;;;;;;;10.88;9.52;;;;;;;;;;5018748;28;20041;-70
2024/01/30 07:05:51;;;;;;;11.75;9.32;;;;;;;;;;5018387;28;20091;-70
2024/01/30 07:08:17;;;;;;;10.13;9.10;;;;;;;;;;5020013;28;20045;-70
2024/01/30 07:10:47;;;;;;;12.27;8.82;;;;;;;;;;5018175;28;20527;-71
2024/01/30 07:13:16;;;;;;;8.10;7.38;;;;;;;;;;5020693;28;20401;-70
2024/01/30 07:15:42;;;;;;;9.32;8.00;;;;;;;;;;5020167;28;20160;-71
2024/01/30 07:18:09;;;;;;;9.63;8.73;;;;;;;;;;5017172;28;20094;-70
2024/01/30 07:20:35;;;;;;;9.57;8.57;;;;;;;;;;5020398;28;20143;-70
2024/01/30 07:23:02;;;;;;;11.02;9.20;;;;;;;;;;5016263;28;20081;-70
2024/01/30 07:25:29;;;;;;;10.13;9.07;;;;;;;;;;5014522;28;20065;-70
2024/01/30 07:27:55;;;;;;;10.38;9.32;;;;;;;;;;5016240;28;20102;-71
2024/01/30 07:30:21;;;;;;;10.68;9.23;;;;;;;;;;5016641;28;20535;-70
2024/01/30 07:32:47;;;;;;;12.10;10.00;;;;;;;;;;5012848;28;20311;-70
2024/01/30 07:35:14;;;;;;;11.10;9.90;;;;;;;;;;5016289;28;20060;-71
2024/01/30 07:37:40;;;;;;;10.98;9.88;;;;;;;;;;5016326;28;20408;-69
2024/01/30 07:40:06;;;;;;;9.30;8.40;;;;;;;;;;5013015;28;20065;-70
2024/01/30 07:42:33;;;;;;;11.45;9.57;;;;;;;;;;5015008;28;20452;-70
2024/01/30 07:44:59;;;;;;;10.70;9.60;;;;;;;;;;5016354;28;20052;-70
2024/01/30 07:47:25;;;;;;;9.65;8.70;;;;;;;;;;5014279;28;20072;-70
2024/01/30 07:49:51;;;;;;;10.30;9.07;;;;;;;;;;5013753;28;20046;-70
2024/01/30 07:52:17;;;;;;;9.02;8.13;;;;;;;;;;5018021;28;20489;-70
2024/01/30 07:54:49;;;;;;;11.30;9.68;;;;;;;;;;5016708;28;20127;-70
2024/01/30 07:57:16;;;;;;;10.25;8.57;;;;;;;;;;5017475;28;20100;-71
2024/01/30 07:59:46;;;;;;;12.00;9.27;;;;;;;;;;5015852;28;20049;-70
2024/01/30 08:02:15;;;;;;;13.52;9.82;;;;;;;;;;5016466;28;20076;-69
2024/01/30 08:04:41;;;;;;;10.65;9.55;;;;;;;;;;5013498;28;20049;-70
2024/01/30 08:07:07;;;;;;;11.32;8.77;;;;;;;;;;5017714;28;20523;-70
2024/01/30 08:09:33;;;;;;;9.75;8.63;;;;;;;;;;5022400;28;20046;-69
2024/01/30 08:11:59;;;;;;;9.27;8.30;;;;;;;;;;5024918;28;20493;-70
2024/01/30 08:14:26;;;;;;;10.30;7.78;;;;;;;;;;5020178;28;20132;-70
2024/01/30 08:16:52;;;;;;;8.77;7.88;;;;;;;;;;5023464;28;20429;-69
2024/01/30 08:19:18;;;;;;;8.40;7.38;;;;;;;;;;5019405;28;20056;-70
2024/01/30 08:21:44;;;;;;;8.98;8.07;;;;;;;;;;5019218;28;20038;-70
2024/01/30 08:24:10;;;;;;;10.00;8.88;;;;;;;;;;5018360;28;20374;-68
2024/01/30 08:26:36;;;;;;;10.32;9.20;;;;;;;;;;5019300;28;20065;-68
2024/01/30 08:29:02;;;;;;;13.68;10.07;;;;;;;;;;5019614;28;20107;-70
2024/01/30 08:31:28;;;;;;;11.05;8.93;;;;;;;;;;5017128;28;20746;-71
2024/01/30 08:33:55;;;;;;;12.40;9.48;;;;;;;;;;5019172;28;20489;-70
2024/01/30 08:36:21;;;;;;;9.82;8.82;;;;;;;;;;5018610;28;20389;-70
2024/01/30 08:38:47;;;;;;;13.20;9.23;;;;;;;;;;5019900;28;20428;-70
2024/01/30 08:41:13;;;;;;;9.52;8.27;;;;;;;;;;5020482;28;20041;-70
2024/01/30 08:43:39;;;;;;;9.27;7.90;;;;;;;;;;5019635;28;20053;-70
2024/01/30 08:46:05;;;;;;;10.52;8.48;;;;;;;;;;5020046;28;20136;-70
2024/01/30 08:48:31;;;;;;;10.55;7.93;;;;;;;;;;5019625;28;20049;-70
2024/01/30 08:50:57;;;;;;;11.20;7.95;;;;;;;;;;5015033;28;20065;-70
2024/01/30 08:53:23;;;;;;;12.02;9.00;;;;;;;;;;5021119;28;20045;-70
2024/01/30 08:55:49;;;;;;;10.95;8.82;;;;;;;;;;5017690;28;20425;-70
2024/01/30 08:58:15;;;;;;;10.60;9.13;;;;;;;;;;5015606;28;20089;-70
2024/01/30 09:00:41;;;;;;;13.00;9.88;;;;;;;;;;5026163;28;20073;-71
2024/01/30 09:03:07;;;;;;;11.80;7.85;;;;;;;;;;5024996;28;20053;-67
2024/01/30 09:05:33;;;;;;;8.38;7.57;;;;;;;;;;5024396;28;20048;-70
2024/01/30 09:07:59;;;;;;;13.25;9.68;;;;;;;;;;5025158;28;20057;-67
2024/01/30 09:10:25;;;;;;;10.70;9.32;;;;;;;;;;5016268;28;20052;-69
2024/01/30 09:12:51;;;;;;;11.27;9.00;;;;;;;;;;5017340;28;20134;-70
2024/01/30 09:15:17;;;;;;;10.35;9.30;;;;;;;;;;5020248;28;20449;-70
2024/01/30 09:17:43;;;;;;;11.77;9.20;;;;;;;;;;5016400;28;20045;-68
2024/01/30 09:20:09;;;;;;;10.77;9.23;;;;;;;;;;5021185;28;20049;-68
2024/01/30 09:22:35;;;;;;;10.18;8.52;;;;;;;;;;5023467;28;21037;-69
2024/01/30 09:25:01;;;;;;;9.82;8.27;;;;;;;;;;5015432;28;20112;-70
2024/01/30 09:27:27;;;;;;;11.63;9.13;;;;;;;;;;5022705;28;20476;-70
2024/01/30 09:29:53;;;;;;;11.00;9.90;;;;;;;;;;5021695;28;20172;-70
2024/01/30 09:32:19;;;;;;;12.70;9.30;;;;;;;;;;5014437;28;20054;-69
2024/01/30 09:34:45;;;;;;;11.00;9.15;;;;;;;;;;5015438;28;20073;-69
2024/01/30 09:37:11;;;;;;;8.60;7.70;;;;;;;;;;5025780;28;20137;-68
2024/01/30 09:39:37;;;;;;;11.60;9.70;;;;;;;;;;5023803;28;20133;-67
2024/01/30 09:42:19;;;;;;;12.30;9.13;;;;;;;;;;5018821;28;20041;-68
2024/01/30 09:44:47;;;;;;;12.95;9.88;;;;;;;;;;5016212;28;20137;-68
2024/01/30 09:47:13;;;;;;;12.90;10.30;;;;;;;;;;5023988;28;20400;-67
2024/01/30 09:49:39;;;;;;;12.93;9.82;;;;;;;;;;5015061;28;20056;-67
2024/01/30 09:52:09;;;;;;;12.60;9.20;;;;;;;;;;5015400;28;20483;-68
2024/01/30 09:54:35;;;;;;;10.18;8.88;;;;;;;;;;5020557;28;20294;-69
2024/01/30 09:57:01;;;;;;;15.05;9.93;;;;;;;;;;5020365;28;20539;-69
2024/01/30 09:59:27;;;;;;;9.80;8.80;;;;;;;;;;5022074;28;20128;-68
2024/01/30 10:01:53;;;;;;;11.32;8.55;;;;;;;;;;5017258;28;20111;-67
2024/01/30 10:04:19;;;;;;;10.77;8.85;;;;;;;;;;5014579;28;20061;-68
2024/01/30 10:06:46;;;;;;;22.08;9.32;;;;;;;;;;5018260;28;20056;-69
2024/01/30 10:09:13;;;;;;;8.30;6.75;;;;;;;;;;5020259;28;20516;-68
2024/01/30 10:11:39;;;;;;;10.05;7.53;;;;;;;;;;5024294;28;20057;-68
2024/01/30 10:14:05;;;;;;;9.98;7.75;;;;;;;;;;5018392;28;20056;-68
2024/01/30 10:16:31;;;;;;;9.18;8.00;;;;;;;;;;5024865;28;20488;-67
2024/01/30 10:18:57;;;;;;;10.60;7.93;;;;;;;;;;5017568;28;20045;-68
2024/01/30 10:21:24;;;;;;;14.02;10.05;;;;;;;;;;5019682;28;20042;-68
2024/01/30 10:23:50;;;;;;;11.05;9.93;;;;;;;;;;5035823;28;20080;-68
2024/01/30 10:26:20;;;;;;;11.85;9.07;;;;;;;;;;5023614;28;20080;-69
2024/01/30 10:28:46;;;;;;;9.90;8.55;;;;;;;;;;5016658;28;20517;-71
2024/01/30 10:31:16;;;;;;;13.00;8.52;;;;;;;;;;5015529;28;20103;-68
2024/01/30 10:33:43;;;;;;;14.02;9.20;;;;;;;;;;5017565;28;20053;-69
2024/01/30 10:36:09;;;;;;;11.93;9.25;;;;;;;;;;5009877;28;20551;-68
2024/01/30 10:38:35;;;;;;;12.30;8.90;;;;;;;;;;5017939;28;20072;-69
2024/01/30 10:41:01;;;;;;;10.88;9.45;;;;;;;;;;5013377;28;20640;-68
2024/01/30 10:43:31;;;;;;;14.15;9.93;;;;;;;;;;5020873;28;20083;-70
2024/01/30 10:45:58;;;;;;;12.80;9.35;;;;;;;;;;5018090;28;20137;-70
2024/01/30 10:48:27;;;;;;;11.45;10.07;;;;;;;;;;5019689;28;20050;-69
2024/01/30 10:50:54;;;;;;;14.00;10.15;;;;;;;;;;5023495;28;20041;-69
2024/01/30 10:53:20;;;;;;;12.82;8.70;;;;;;;;;;5017953;28;20128;-69
2024/01/30 10:55:47;;;;;;;12.93;9.45;;;;;;;;;;5019158;28;20405;-70
2024/01/30 10:58:14;;;;;;;10.18;8.93;;;;;;;;;;5022631;28;20463;-69
2024/01/30 11:00:41;;;;;;;12.68;8.40;;;;;;;;;;5020824;28;20041;-69
2024/01/30 11:03:07;;;;;;;12.60;8.32;;;;;;;;;;5016679;28;20073;-70
2024/01/30 11:05:33;;;;;;;13.13;8.25;;;;;;;;;;5016424;28;20037;-69
2024/01/30 11:07:59;;;;;;;11.45;7.88;;;;;;;;;;5019035;28;20065;-69
2024/01/30 11:10:25;;;;;;;13.23;7.88;;;;;;;;;;5016143;28;20480;-70
2024/01/30 11:12:51;;;;;;;11.15;7.95;;;;;;;;;;5018285;28;20045;-69
2024/01/30 11:15:18;;;;;;;11.00;7.57;;;;;;;;;;5017324;28;20077;-71
2024/01/30 11:17:53;;;;;;;9.95;7.53;;;;;;;;;;5022602;28;20053;-73
2024/01/30 11:20:19;;;;;;;12.95;6.95;;;;;;;;;;5018574;28;20049;-76
2024/01/30 11:22:46;;;;;;;10.85;6.63;;;;;;;;;;5020118;28;20137;-74
2024/01/30 11:25:13;;;;;;;8.68;6.55;;;;;;;;;;5019665;28;20057;-74
2024/01/30 11:27:40;;;;;;;8.90;5.72;;;;;;;;;;5015490;28;20140;-74
2024/01/30 11:30:07;;;;;;;7.85;5.88;;;;;;;;;;5020950;28;20499;-75
2024/01/30 11:32:33;;;;;;;8.02;4.70;;;;;;;;;;5020231;28;20053;-74
2024/01/30 11:34:59;;;;;;;9.48;4.43;;;;;;;;;;5020538;28;20049;-74
2024/01/30 11:37:27;;;;;;;12.63;5.38;;;;;;;;;;5021440;28;20073;-73
2024/01/30 11:39:54;;;;;;;9.63;4.47;;;;;;;;;;5018858;28;20041;-73
2024/01/30 11:42:20;;;;;;;10.77;4.35;;;;;;;;;;5018540;28;20056;-72
2024/01/30 11:44:49;;;;;;;7.50;3.80;;;;;;;;;;5027286;28;20049;-73
2024/01/30 11:47:16;;;;;;;6.20;3.40;;;;;;;;;;5038839;28;20050;-73
2024/01/30 11:49:43;;;;;;;6.55;3.08;;;;;;;;;;5019331;28;20057;-73
2024/01/30 11:52:09;;;;;;;11.77;3.60;;;;;;;;;;5025651;28;20067;-74
2024/01/30 11:54:35;;;;;;;8.05;3.53;;;;;;;;;;5020912;28;20133;-74
2024/01/30 11:57:01;;;;;;;6.13;2.05;;;;;;;;;;5019090;28;20523;-72
2024/01/30 11:59:27;;;;;;;5.53;2.20;;;;;;;;;;5027849;28;20077;-71
2024/01/30 12:01:53;;;;;;;4.63;2.00;;;;;;;;;;5021622;28;20041;-74
2024/01/30 12:04:19;;;;;;;3.50;1.88;;;;;;;;;;5017626;28;20046;-73
2024/01/30 12:06:45;;;;;;;3.35;1.85;;;;;;;;;;5028492;28;20501;-75
2024/01/30 12:09:13;;;;;;;5.97;1.77;;;;;;;;;;5026007;28;20049;-71
2024/01/30 12:11:49;;;;;;;4.25;1.70;;;;;;;;;;5021424;28;20053;-72
2024/01/30 12:14:17;;;;;;;2.78;1.55;;;;;;;;;;5026774;28;20057;-70
2024/01/30 12:16:43;;;;;;;3.88;1.52;;;;;;;;;;5034299;28;20041;-72
2024/01/30 12:19:09;;;;;;;2.90;1.45;;;;;;;;;;5025688;28;20053;-71
2024/01/30 12:21:35;;;;;;;2.55;1.80;;;;;;;;;;5021528;28;20399;-71
2024/01/30 12:24:02;;;;;;;2.88;1.40;;;;;;;;;;5020997;28;20483;-72
2024/01/30 12:26:28;;;;;;;3.33;1.30;;;;;;;;;;5025357;28;20053;-70
2024/01/30 12:29:01;;;;;;;1.60;1.10;;;;;;;;;;5025506;28;20196;-71
2024/01/30 12:31:32;;;;;;;3.33;1.00;;;;;;;;;;5021595;28;20053;-71
2024/01/30 12:34:00;;;;;;;1.88;1.13;;;;;;;;;;5022848;28;20052;-71
2024/01/30 12:36:26;;;;;;;1.98;1.13;;;;;;;;;;5020157;28;20041;-72
2024/01/30 12:38:55;;;;;;;2.42;0.80;;;;;;;;;;5022061;28;20081;-73
2024/01/30 12:41:21;;;;;;;2.03;0.93;;;;;;;;;;5022105;28;20088;-69
2024/01/30 12:43:47;;;;;;;1.35;0.70;;;;;;;;;;5025210;28;20060;-75
2024/01/30 12:46:13;;;;;;;3.33;1.13;;;;;;;;;;5024735;28;20439;-72
2024/01/30 12:48:39;;;;;;;9.32;1.52;;;;;;;;;;5018128;28;20057;-73
2024/01/30 12:51:05;;;;;;;0.77;0.65;;;;;;;;;;5018386;28;20104;-72
2024/01/30 12:53:31;;;;;;;2.92;0.95;;;;;;;;;;5019293;28;20074;-72
2024/01/30 12:55:57;;;;;;;2.70;0.90;;;;;;;;;;5021897;28;20060;-72
2024/01/30 12:58:23;;;;;;;5.80;1.65;;;;;;;;;;5024871;28;20041;-72
2024/01/30 13:00:49;;;;;;;4.53;0.60;;;;;;;;;;5015436;28;20049;-73
2024/01/30 13:03:15;;;;;;;1.77;0.63;;;;;;;;;;5020339;28;20133;-71
2024/01/30 13:05:41;;;;;;;3.63;0.77;;;;;;;;;;5024702;28;20049;-72
2024/01/30 13:08:07;;;;;;;2.00;0.70;;;;;;;;;;5022118;28;20049;-73
2024/01/30 13:10:33;;;;;;;1.27;0.32;;;;;;;;;;5023654;28;20037;-72
2024/01/30 13:12:59;;;;;;;3.63;0.70;;;;;;;;;;5018950;28;20107;-72
2024/01/30 13:15:25;;;;;;;2.05;0.57;;;;;;;;;;5023480;28;20396;-73
2024/01/30 13:17:54;;;;;;;0.88;0.50;;;;;;;;;;5016892;28;20080;-72
2024/01/30 13:20:20;;;;;;;1.75;0.50;;;;;;;;;;5024376;28;20049;-73
2024/01/30 13:22:50;;;;;;;2.40;1.00;;;;;;;;;;5022307;28;20077;-73
2024/01/30 13:25:16;;;;;;;2.28;0.90;;;;;;;;;;5023424;28;20092;-72
2024/01/30 13:27:42;;;;;;;3.58;1.15;;;;;;;;;;5024701;28;20049;-73
2024/01/30 13:30:11;;;;;;;4.43;1.55;;;;;;;;;;5020720;28;20092;-73
2024/01/30 13:32:37;;;;;;;2.42;0.80;;;;;;;;;;5022551;28;20053;-72
2024/01/30 13:35:04;;;;;;;1.17;0.68;;;;;;;;;;5022135;28;20484;-73
2024/01/30 13:37:30;;;;;;;0.90;0.57;;;;;;;;;;5024606;28;20050;-73
2024/01/30 13:39:56;;;;;;;2.65;1.25;;;;;;;;;;5023839;28;20050;-73
2024/01/30 13:42:23;;;;;;;2.15;0.88;;;;;;;;;;5023225;28;20640;-73
2024/01/30 13:44:50;;;;;;;1.70;1.00;;;;;;;;;;5021362;28;20053;-72
2024/01/30 13:47:16;;;;;;;2.58;1.00;;;;;;;;;;5024995;28;20057;-72
2024/01/30 13:49:42;;;;;;;2.58;0.98;;;;;;;;;;5022781;28;20054;-72
2024/01/30 13:52:08;;;;;;;4.63;1.35;;;;;;;;;;5024003;28;20048;-72
2024/01/30 13:54:34;;;;;;;1.10;0.73;;;;;;;;;;5019627;28;20046;-72
2024/01/30 13:57:00;;;;;;;1.48;1.10;;;;;;;;;;5017655;28;20050;-74
2024/01/30 13:59:26;;;;;;;2.08;0.85;;;;;;;;;;5022183;28;20041;-73
2024/01/30 14:01:52;;;;;;;1.85;0.90;;;;;;;;;;5016375;28;20049;-72
2024/01/30 14:04:18;;;;;;;2.83;1.10;;;;;;;;;;5017413;28;20820;-72
2024/01/30 14:06:44;;;;;;;0.77;0.77;;;;;;;;;;5022781;28;20496;-72
2024/01/30 14:09:10;;;;;;;1.33;0.70;;;;;;;;;;5017531;28;20663;-72
2024/01/30 14:11:36;;;;;;;1.88;0.63;;;;;;;;;;5022763;28;20233;-72
2024/01/30 14:14:02;;;;;;;1.35;0.75;;;;;;;;;;5018935;28;20459;-72
2024/01/30 14:16:28;;;;;;;1.30;0.77;;;;;;;;;;5018047;28;20037;-71
2024/01/30 14:18:54;;;;;;;1.67;0.75;;;;;;;;;;5021379;28;20103;-71
2024/01/30 14:21:20;;;;;;;2.50;0.70;;;;;;;;;;5018563;28;20037;-74
2024/01/30 14:23:47;;;;;;;2.08;0.82;;;;;;;;;;5020526;28;20142;-72
2024/01/30 14:26:13;;;;;;;2.05;0.80;;;;;;;;;;5021087;28;20133;-73
2024/01/30 14:28:39;;;;;;;4.43;0.98;;;;;;;;;;5022554;28;20049;-72
2024/01/30 14:31:05;;;;;;;2.55;0.88;;;;;;;;;;5023476;28;20404;-71
2024/01/30 14:33:31;;;;;;;2.60;0.88;;;;;;;;;;5021957;28;20420;-69